METAR Data
IDs: Format: Raw Decoded Include TAF

Data at: 2051 UTC 18 Apr 2021

EGWU 181950Z AUTO 04005KT 9999 // SCT160/// 11/M03 Q1023